sensor_id;sensor_type;location;lat;lon;timestamp;P1;durP1;ratioP1;P2;durP2;ratioP2
32292;SDS011;43233;48.608;8.838;2023-05-02T00:01:31;5.43;;;4.93;;
32292;SDS011;43233;48.608;8.838;2023-05-02T00:03:57;6.53;;;5.20;;
32292;SDS011;43233;48.608;8.838;2023-05-02T00:06:23;5.97;;;5.23;;
32292;SDS011;43233;48.608;8.838;2023-05-02T00:08:49;4.20;;;3.90;;
32292;SDS011;43233;48.608;8.838;2023-05-02T00:11:14;6.40;;;4.63;;
32292;SDS011;43233;48.608;8.838;2023-05-02T00:13:40;5.50;;;4.97;;
32292;SDS011;43233;48.608;8.838;2023-05-02T00:16:07;5.63;;;5.20;;
32292;SDS011;43233;48.608;8.838;2023-05-02T00:18:33;5.30;;;4.80;;
32292;SDS011;43233;48.608;8.838;2023-05-02T00:20:59;7.43;;;6.00;;
32292;SDS011;43233;48.608;8.838;2023-05-02T00:23:25;4.87;;;4.47;;
32292;SDS011;43233;48.608;8.838;2023-05-02T00:25:51;5.80;;;5.10;;
32292;SDS011;43233;48.608;8.838;2023-05-02T00:28:16;6.10;;;5.60;;
32292;SDS011;43233;48.608;8.838;2023-05-02T00:30:43;5.70;;;5.20;;
32292;SDS011;43233;48.608;8.838;2023-05-02T00:33:09;6.30;;;4.93;;
32292;SDS011;43233;48.608;8.838;2023-05-02T00:35:36;5.57;;;5.07;;
32292;SDS011;43233;48.608;8.838;2023-05-02T00:38:02;6.90;;;4.73;;
32292;SDS011;43233;48.608;8.838;2023-05-02T00:40:28;4.43;;;4.03;;
32292;SDS011;43233;48.608;8.838;2023-05-02T00:42:53;4.83;;;4.43;;
32292;SDS011;43233;48.608;8.838;2023-05-02T00:45:19;5.07;;;4.67;;
32292;SDS011;43233;48.608;8.838;2023-05-02T00:47:45;5.23;;;4.40;;
32292;SDS011;43233;48.608;8.838;2023-05-02T00:50:10;5.23;;;4.60;;
32292;SDS011;43233;48.608;8.838;2023-05-02T00:52:36;4.27;;;3.97;;
32292;SDS011;43233;48.608;8.838;2023-05-02T00:55:02;5.03;;;4.50;;
32292;SDS011;43233;48.608;8.838;2023-05-02T00:57:28;4.23;;;3.93;;
32292;SDS011;43233;48.608;8.838;2023-05-02T00:59:54;4.70;;;4.30;;
32292;SDS011;43233;48.608;8.838;2023-05-02T01:02:31;5.20;;;4.63;;
32292;SDS011;43233;48.608;8.838;2023-05-02T01:08:19;4.50;;;4.20;;
32292;SDS011;43233;48.608;8.838;2023-05-02T01:11:10;4.30;;;3.90;;
32292;SDS011;43233;48.608;8.838;2023-05-02T01:13:41;4.37;;;4.00;;
32292;SDS011;43233;48.608;8.838;2023-05-02T01:16:10;4.23;;;3.87;;
32292;SDS011;43233;48.608;8.838;2023-05-02T01:18:39;4.60;;;3.60;;
32292;SDS011;43233;48.608;8.838;2023-05-02T01:21:07;4.60;;;4.17;;
32292;SDS011;43233;48.608;8.838;2023-05-02T01:29:16;5.60;;;4.50;;
32292;SDS011;43233;48.608;8.838;2023-05-02T01:31:45;5.40;;;4.60;;
32292;SDS011;43233;48.608;8.838;2023-05-02T01:34:13;7.33;;;4.20;;
32292;SDS011;43233;48.608;8.838;2023-05-02T01:36:42;4.83;;;4.43;;
32292;SDS011;43233;48.608;8.838;2023-05-02T01:39:10;6.43;;;4.80;;
32292;SDS011;43233;48.608;8.838;2023-05-02T01:41:42;5.03;;;4.63;;
32292;SDS011;43233;48.608;8.838;2023-05-02T01:44:11;5.60;;;5.10;;
32292;SDS011;43233;48.608;8.838;2023-05-02T01:46:39;5.10;;;4.70;;
32292;SDS011;43233;48.608;8.838;2023-05-02T01:49:07;8.70;;;6.00;;
32292;SDS011;43233;48.608;8.838;2023-05-02T01:51:34;5.73;;;5.10;;
32292;SDS011;43233;48.608;8.838;2023-05-02T01:54:05;5.43;;;4.93;;
32292;SDS011;43233;48.608;8.838;2023-05-02T01:56:34;6.00;;;5.43;;
32292;SDS011;43233;48.608;8.838;2023-05-02T01:59:02;6.60;;;5.93;;
32292;SDS011;43233;48.608;8.838;2023-05-02T02:01:32;6.37;;;5.80;;
32292;SDS011;43233;48.608;8.838;2023-05-02T02:04:00;6.80;;;5.57;;
32292;SDS011;43233;48.608;8.838;2023-05-02T02:06:28;5.50;;;5.00;;
32292;SDS011;43233;48.608;8.838;2023-05-02T02:08:53;6.10;;;5.50;;
32292;SDS011;43233;48.608;8.838;2023-05-02T02:12:06;6.50;;;5.90;;
32292;SDS011;43233;48.608;8.838;2023-05-02T02:14:31;6.67;;;5.47;;
32292;SDS011;43233;48.608;8.838;2023-05-02T02:17:04;5.37;;;4.97;;
32292;SDS011;43233;48.608;8.838;2023-05-02T02:19:36;5.97;;;5.37;;
32292;SDS011;43233;48.608;8.838;2023-05-02T02:22:04;5.50;;;5.00;;
32292;SDS011;43233;48.608;8.838;2023-05-02T02:24:31;5.80;;;5.30;;
32292;SDS011;43233;48.608;8.838;2023-05-02T02:26:59;6.37;;;5.70;;
32292;SDS011;43233;48.608;8.838;2023-05-02T02:29:26;5.53;;;5.03;;
32292;SDS011;43233;48.608;8.838;2023-05-02T02:31:52;6.60;;;5.40;;
32292;SDS011;43233;48.608;8.838;2023-05-02T02:34:18;5.37;;;4.87;;
32292;SDS011;43233;48.608;8.838;2023-05-02T02:36:55;6.40;;;5.80;;
32292;SDS011;43233;48.608;8.838;2023-05-02T02:44:34;6.80;;;6.10;;
32292;SDS011;43233;48.608;8.838;2023-05-02T02:47:22;6.70;;;6.00;;
32292;SDS011;43233;48.608;8.838;2023-05-02T02:50:03;8.63;;;6.97;;
32292;SDS011;43233;48.608;8.838;2023-05-02T02:52:55;6.47;;;5.83;;
32292;SDS011;43233;48.608;8.838;2023-05-02T02:55:30;6.30;;;5.70;;
32292;SDS011;43233;48.608;8.838;2023-05-02T03:00:45;6.60;;;5.97;;
32292;SDS011;43233;48.608;8.838;2023-05-02T03:03:13;6.03;;;5.40;;
32292;SDS011;43233;48.608;8.838;2023-05-02T03:05:41;8.33;;;5.50;;
32292;SDS011;43233;48.608;8.838;2023-05-02T03:08:08;8.30;;;6.60;;
32292;SDS011;43233;48.608;8.838;2023-05-02T03:10:34;7.10;;;5.97;;
32292;SDS011;43233;48.608;8.838;2023-05-02T03:13:00;6.67;;;6.07;;
32292;SDS011;43233;48.608;8.838;2023-05-02T03:18:15;5.90;;;5.40;;
32292;SDS011;43233;48.608;8.838;2023-05-02T03:20:40;6.03;;;5.17;;
32292;SDS011;43233;48.608;8.838;2023-05-02T03:23:06;5.93;;;5.43;;
32292;SDS011;43233;48.608;8.838;2023-05-02T03:25:32;5.80;;;5.27;;
32292;SDS011;43233;48.608;8.838;2023-05-02T03:27:57;5.40;;;4.87;;
32292;SDS011;43233;48.608;8.838;2023-05-02T03:30:23;6.07;;;5.57;;
32292;SDS011;43233;48.608;8.838;2023-05-02T03:32:48;5.97;;;5.37;;
32292;SDS011;43233;48.608;8.838;2023-05-02T03:35:14;5.30;;;4.90;;
32292;SDS011;43233;48.608;8.838;2023-05-02T03:37:40;5.13;;;4.63;;
32292;SDS011;43233;48.608;8.838;2023-05-02T03:40:06;4.67;;;4.27;;
32292;SDS011;43233;48.608;8.838;2023-05-02T03:42:33;6.93;;;5.03;;
32292;SDS011;43233;48.608;8.838;2023-05-02T03:45:08;6.60;;;6.00;;
32292;SDS011;43233;48.608;8.838;2023-05-02T03:47:34;6.27;;;5.67;;
32292;SDS011;43233;48.608;8.838;2023-05-02T03:50:00;6.27;;;5.77;;
32292;SDS011;43233;48.608;8.838;2023-05-02T03:52:26;7.00;;;6.30;;
32292;SDS011;43233;48.608;8.838;2023-05-02T03:54:52;18.63;;;6.43;;
32292;SDS011;43233;48.608;8.838;2023-05-02T03:57:18;6.63;;;5.93;;
32292;SDS011;43233;48.608;8.838;2023-05-02T03:59:43;5.90;;;5.30;;
32292;SDS011;43233;48.608;8.838;2023-05-02T04:02:12;6.17;;;5.57;;
32292;SDS011;43233;48.608;8.838;2023-05-02T04:04:39;6.83;;;5.87;;
32292;SDS011;43233;48.608;8.838;2023-05-02T04:07:05;6.80;;;5.50;;
32292;SDS011;43233;48.608;8.838;2023-05-02T04:09:39;5.97;;;5.37;;
32292;SDS011;43233;48.608;8.838;2023-05-02T04:12:05;5.80;;;4.87;;
32292;SDS011;43233;48.608;8.838;2023-05-02T04:14:31;5.97;;;5.33;;
32292;SDS011;43233;48.608;8.838;2023-05-02T04:16:56;5.57;;;5.03;;
32292;SDS011;43233;48.608;8.838;2023-05-02T04:19:22;10.40;;;5.70;;
32292;SDS011;43233;48.608;8.838;2023-05-02T04:21:48;6.63;;;6.03;;
32292;SDS011;43233;48.608;8.838;2023-05-02T04:24:13;5.97;;;5.37;;
32292;SDS011;43233;48.608;8.838;2023-05-02T04:26:39;6.60;;;6.00;;
32292;SDS011;43233;48.608;8.838;2023-05-02T04:29:05;5.40;;;5.00;;
32292;SDS011;43233;48.608;8.838;2023-05-02T04:31:31;6.33;;;5.73;;
32292;SDS011;43233;48.608;8.838;2023-05-02T04:33:57;7.13;;;5.50;;
32292;SDS011;43233;48.608;8.838;2023-05-02T04:36:23;7.13;;;5.83;;
32292;SDS011;43233;48.608;8.838;2023-05-02T04:38:50;8.73;;;6.20;;
32292;SDS011;43233;48.608;8.838;2023-05-02T04:41:16;7.03;;;6.33;;
32292;SDS011;43233;48.608;8.838;2023-05-02T04:43:42;7.50;;;6.73;;
32292;SDS011;43233;48.608;8.838;2023-05-02T04:46:08;6.33;;;5.73;;
32292;SDS011;43233;48.608;8.838;2023-05-02T04:48:34;7.03;;;6.33;;
32292;SDS011;43233;48.608;8.838;2023-05-02T04:50:59;8.23;;;6.90;;
32292;SDS011;43233;48.608;8.838;2023-05-02T04:53:25;6.70;;;6.00;;
32292;SDS011;43233;48.608;8.838;2023-05-02T04:55:51;6.67;;;5.97;;
32292;SDS011;43233;48.608;8.838;2023-05-02T04:58:17;8.77;;;6.43;;
32292;SDS011;43233;48.608;8.838;2023-05-02T05:00:43;12.87;;;6.70;;
32292;SDS011;43233;48.608;8.838;2023-05-02T05:03:08;10.20;;;6.93;;
32292;SDS011;43233;48.608;8.838;2023-05-02T05:05:34;8.00;;;6.23;;
32292;SDS011;43233;48.608;8.838;2023-05-02T05:08:00;7.03;;;6.37;;
32292;SDS011;43233;48.608;8.838;2023-05-02T05:10:26;7.63;;;6.87;;
32292;SDS011;43233;48.608;8.838;2023-05-02T05:12:51;6.93;;;6.20;;
32292;SDS011;43233;48.608;8.838;2023-05-02T05:15:17;6.80;;;6.10;;
32292;SDS011;43233;48.608;8.838;2023-05-02T05:17:46;7.33;;;6.07;;
32292;SDS011;43233;48.608;8.838;2023-05-02T05:20:12;8.60;;;7.20;;
32292;SDS011;43233;48.608;8.838;2023-05-02T05:22:38;5.50;;;5.00;;
32292;SDS011;43233;48.608;8.838;2023-05-02T05:25:05;8.70;;;6.50;;
32292;SDS011;43233;48.608;8.838;2023-05-02T05:27:32;7.17;;;6.13;;
32292;SDS011;43233;48.608;8.838;2023-05-02T05:29:58;6.80;;;6.20;;
32292;SDS011;43233;48.608;8.838;2023-05-02T05:32:24;6.37;;;5.77;;
32292;SDS011;43233;48.608;8.838;2023-05-02T05:34:50;5.80;;;5.30;;
32292;SDS011;43233;48.608;8.838;2023-05-02T05:37:17;7.80;;;5.63;;
32292;SDS011;43233;48.608;8.838;2023-05-02T05:39:42;6.87;;;5.57;;
32292;SDS011;43233;48.608;8.838;2023-05-02T05:42:08;8.00;;;7.20;;
32292;SDS011;43233;48.608;8.838;2023-05-02T05:44:34;7.87;;;6.87;;
32292;SDS011;43233;48.608;8.838;2023-05-02T05:47:01;6.77;;;6.13;;
32292;SDS011;43233;48.608;8.838;2023-05-02T05:49:26;17.73;;;7.10;;
32292;SDS011;43233;48.608;8.838;2023-05-02T05:51:52;7.07;;;6.30;;
32292;SDS011;43233;48.608;8.838;2023-05-02T05:54:18;7.67;;;6.63;;
32292;SDS011;43233;48.608;8.838;2023-05-02T05:56:44;7.43;;;6.60;;
32292;SDS011;43233;48.608;8.838;2023-05-02T05:59:09;9.50;;;6.53;;
32292;SDS011;43233;48.608;8.838;2023-05-02T06:01:35;6.43;;;5.77;;
32292;SDS011;43233;48.608;8.838;2023-05-02T06:04:02;6.97;;;6.27;;
32292;SDS011;43233;48.608;8.838;2023-05-02T06:06:29;6.87;;;6.17;;
32292;SDS011;43233;48.608;8.838;2023-05-02T06:08:58;6.80;;;6.20;;
32292;SDS011;43233;48.608;8.838;2023-05-02T06:11:24;7.90;;;6.50;;
32292;SDS011;43233;48.608;8.838;2023-05-02T06:13:53;10.30;;;7.30;;
32292;SDS011;43233;48.608;8.838;2023-05-02T06:16:19;7.03;;;6.33;;
32292;SDS011;43233;48.608;8.838;2023-05-02T06:18:45;7.00;;;6.30;;
32292;SDS011;43233;48.608;8.838;2023-05-02T06:21:11;7.97;;;6.47;;
32292;SDS011;43233;48.608;8.838;2023-05-02T06:23:37;9.53;;;7.20;;
32292;SDS011;43233;48.608;8.838;2023-05-02T06:26:03;7.53;;;6.73;;
32292;SDS011;43233;48.608;8.838;2023-05-02T06:28:29;7.57;;;6.87;;
32292;SDS011;43233;48.608;8.838;2023-05-02T06:31:04;8.27;;;7.40;;
32292;SDS011;43233;48.608;8.838;2023-05-02T06:33:30;9.37;;;6.33;;
32292;SDS011;43233;48.608;8.838;2023-05-02T06:35:57;7.00;;;6.23;;
32292;SDS011;43233;48.608;8.838;2023-05-02T06:38:23;6.40;;;5.80;;
32292;SDS011;43233;48.608;8.838;2023-05-02T06:40:49;6.13;;;5.60;;
32292;SDS011;43233;48.608;8.838;2023-05-02T06:43:16;5.90;;;5.30;;
32292;SDS011;43233;48.608;8.838;2023-05-02T06:45:42;5.77;;;5.27;;
32292;SDS011;43233;48.608;8.838;2023-05-02T06:48:08;6.37;;;5.77;;
32292;SDS011;43233;48.608;8.838;2023-05-02T06:50:34;6.67;;;6.00;;
32292;SDS011;43233;48.608;8.838;2023-05-02T06:53:00;7.77;;;6.33;;
32292;SDS011;43233;48.608;8.838;2023-05-02T06:55:26;6.03;;;5.53;;
32292;SDS011;43233;48.608;8.838;2023-05-02T06:57:52;7.70;;;6.17;;
32292;SDS011;43233;48.608;8.838;2023-05-02T07:00:18;7.17;;;6.33;;
32292;SDS011;43233;48.608;8.838;2023-05-02T07:02:45;5.67;;;5.17;;
32292;SDS011;43233;48.608;8.838;2023-05-02T07:05:12;7.40;;;6.70;;
32292;SDS011;43233;48.608;8.838;2023-05-02T07:07:39;8.20;;;6.20;;
32292;SDS011;43233;48.608;8.838;2023-05-02T07:10:06;12.83;;;6.73;;
32292;SDS011;43233;48.608;8.838;2023-05-02T07:12:32;6.37;;;5.77;;
32292;SDS011;43233;48.608;8.838;2023-05-02T07:14:58;10.43;;;6.70;;
32292;SDS011;43233;48.608;8.838;2023-05-02T07:17:24;11.10;;;9.07;;
32292;SDS011;43233;48.608;8.838;2023-05-02T07:19:49;11.30;;;8.83;;
32292;SDS011;43233;48.608;8.838;2023-05-02T07:22:15;15.17;;;13.37;;
32292;SDS011;43233;48.608;8.838;2023-05-02T07:24:41;14.23;;;11.77;;
32292;SDS011;43233;48.608;8.838;2023-05-02T07:27:07;14.70;;;11.57;;
32292;SDS011;43233;48.608;8.838;2023-05-02T07:29:34;12.80;;;10.83;;
32292;SDS011;43233;48.608;8.838;2023-05-02T07:32:00;17.43;;;12.70;;
32292;SDS011;43233;48.608;8.838;2023-05-02T07:34:26;19.00;;;12.83;;
32292;SDS011;43233;48.608;8.838;2023-05-02T07:36:51;18.70;;;13.90;;
32292;SDS011;43233;48.608;8.838;2023-05-02T07:39:17;22.37;;;12.90;;
32292;SDS011;43233;48.608;8.838;2023-05-02T07:41:43;21.37;;;15.17;;
32292;SDS011;43233;48.608;8.838;2023-05-02T07:44:08;17.47;;;13.27;;
32292;SDS011;43233;48.608;8.838;2023-05-02T07:46:35;21.47;;;16.40;;
32292;SDS011;43233;48.608;8.838;2023-05-02T07:49:01;27.30;;;17.87;;
32292;SDS011;43233;48.608;8.838;2023-05-02T07:51:27;22.00;;;17.23;;
32292;SDS011;43233;48.608;8.838;2023-05-02T07:53:52;21.00;;;17.00;;
32292;SDS011;43233;48.608;8.838;2023-05-02T07:56:22;22.53;;;16.80;;
32292;SDS011;43233;48.608;8.838;2023-05-02T07:58:48;25.70;;;19.13;;
32292;SDS011;43233;48.608;8.838;2023-05-02T08:01:15;30.17;;;21.63;;
32292;SDS011;43233;48.608;8.838;2023-05-02T08:03:41;39.17;;;23.20;;
32292;SDS011;43233;48.608;8.838;2023-05-02T08:06:07;29.90;;;22.07;;
32292;SDS011;43233;48.608;8.838;2023-05-02T08:08:34;36.90;;;24.47;;
32292;SDS011;43233;48.608;8.838;2023-05-02T08:11:00;37.80;;;23.50;;
32292;SDS011;43233;48.608;8.838;2023-05-02T08:13:26;32.20;;;22.60;;
32292;SDS011;43233;48.608;8.838;2023-05-02T08:15:52;51.43;;;27.00;;
32292;SDS011;43233;48.608;8.838;2023-05-02T08:18:24;31.70;;;23.20;;
32292;SDS011;43233;48.608;8.838;2023-05-02T08:20:50;35.53;;;25.70;;
32292;SDS011;43233;48.608;8.838;2023-05-02T08:23:17;40.30;;;26.20;;
32292;SDS011;43233;48.608;8.838;2023-05-02T08:25:42;37.47;;;26.03;;
32292;SDS011;43233;48.608;8.838;2023-05-02T08:28:08;44.27;;;30.60;;
32292;SDS011;43233;48.608;8.838;2023-05-02T08:30:34;49.70;;;28.70;;
32292;SDS011;43233;48.608;8.838;2023-05-02T08:33:00;39.67;;;28.13;;
32292;SDS011;43233;48.608;8.838;2023-05-02T08:35:27;45.23;;;31.90;;
32292;SDS011;43233;48.608;8.838;2023-05-02T08:37:55;43.90;;;30.97;;
32292;SDS011;43233;48.608;8.838;2023-05-02T08:40:21;48.67;;;30.77;;
32292;SDS011;43233;48.608;8.838;2023-05-02T08:42:47;43.50;;;29.43;;
32292;SDS011;43233;48.608;8.838;2023-05-02T08:45:13;42.67;;;28.70;;
32292;SDS011;43233;48.608;8.838;2023-05-02T08:47:40;40.13;;;26.83;;
32292;SDS011;43233;48.608;8.838;2023-05-02T08:50:07;45.03;;;31.63;;
32292;SDS011;43233;48.608;8.838;2023-05-02T08:52:34;35.43;;;26.47;;
32292;SDS011;43233;48.608;8.838;2023-05-02T08:55:01;35.33;;;25.67;;
32292;SDS011;43233;48.608;8.838;2023-05-02T08:57:28;44.50;;;29.80;;
32292;SDS011;43233;48.608;8.838;2023-05-02T08:59:55;43.90;;;27.70;;
32292;SDS011;43233;48.608;8.838;2023-05-02T09:05:11;41.20;;;29.00;;
32292;SDS011;43233;48.608;8.838;2023-05-02T09:07:47;48.27;;;30.07;;
32292;SDS011;43233;48.608;8.838;2023-05-02T09:10:15;40.03;;;28.13;;
32292;SDS011;43233;48.608;8.838;2023-05-02T09:12:41;39.93;;;26.80;;
32292;SDS011;43233;48.608;8.838;2023-05-02T09:15:14;42.10;;;25.97;;
32292;SDS011;43233;48.608;8.838;2023-05-02T09:17:44;35.37;;;24.87;;
32292;SDS011;43233;48.608;8.838;2023-05-02T09:20:12;34.53;;;24.80;;
32292;SDS011;43233;48.608;8.838;2023-05-02T09:22:46;33.50;;;24.67;;
32292;SDS011;43233;48.608;8.838;2023-05-02T09:25:15;31.80;;;22.20;;
32292;SDS011;43233;48.608;8.838;2023-05-02T09:28:00;29.57;;;23.40;;
32292;SDS011;43233;48.608;8.838;2023-05-02T09:30:26;33.27;;;23.30;;
32292;SDS011;43233;48.608;8.838;2023-05-02T09:32:52;33.60;;;24.80;;
32292;SDS011;43233;48.608;8.838;2023-05-02T09:35:19;29.83;;;20.70;;
32292;SDS011;43233;48.608;8.838;2023-05-02T09:37:52;27.17;;;20.17;;
32292;SDS011;43233;48.608;8.838;2023-05-02T09:40:23;25.37;;;20.00;;
32292;SDS011;43233;48.608;8.838;2023-05-02T09:42:49;30.20;;;21.20;;
32292;SDS011;43233;48.608;8.838;2023-05-02T09:45:22;22.30;;;17.90;;
32292;SDS011;43233;48.608;8.838;2023-05-02T09:47:49;21.53;;;15.97;;
32292;SDS011;43233;48.608;8.838;2023-05-02T09:50:31;20.00;;;16.50;;
32292;SDS011;43233;48.608;8.838;2023-05-02T09:53:05;26.13;;;19.83;;
32292;SDS011;43233;48.608;8.838;2023-05-02T09:55:33;22.50;;;16.60;;
32292;SDS011;43233;48.608;8.838;2023-05-02T09:57:59;22.80;;;18.07;;
32292;SDS011;43233;48.608;8.838;2023-05-02T10:00:41;27.23;;;16.07;;
32292;SDS011;43233;48.608;8.838;2023-05-02T10:03:08;27.30;;;17.90;;
32292;SDS011;43233;48.608;8.838;2023-05-02T10:05:35;25.63;;;18.90;;
32292;SDS011;43233;48.608;8.838;2023-05-02T10:08:03;18.87;;;15.23;;
32292;SDS011;43233;48.608;8.838;2023-05-02T10:10:31;22.63;;;16.40;;
32292;SDS011;43233;48.608;8.838;2023-05-02T10:13:00;28.40;;;21.83;;
32292;SDS011;43233;48.608;8.838;2023-05-02T10:15:28;27.13;;;20.83;;
32292;SDS011;43233;48.608;8.838;2023-05-02T10:17:55;23.90;;;18.80;;
32292;SDS011;43233;48.608;8.838;2023-05-02T10:20:30;25.27;;;18.90;;
32292;SDS011;43233;48.608;8.838;2023-05-02T10:22:59;21.70;;;16.53;;
32292;SDS011;43233;48.608;8.838;2023-05-02T10:25:26;29.10;;;20.33;;
32292;SDS011;43233;48.608;8.838;2023-05-02T10:27:52;23.17;;;17.87;;
32292;SDS011;43233;48.608;8.838;2023-05-02T10:30:22;23.10;;;16.40;;
32292;SDS011;43233;48.608;8.838;2023-05-02T10:32:49;28.60;;;19.57;;
32292;SDS011;43233;48.608;8.838;2023-05-02T10:35:17;21.10;;;15.07;;
32292;SDS011;43233;48.608;8.838;2023-05-02T10:37:43;18.03;;;14.40;;
32292;SDS011;43233;48.608;8.838;2023-05-02T10:40:11;22.83;;;16.00;;
32292;SDS011;43233;48.608;8.838;2023-05-02T10:42:38;20.20;;;15.20;;
32292;SDS011;43233;48.608;8.838;2023-05-02T10:50:43;19.10;;;15.03;;
32292;SDS011;43233;48.608;8.838;2023-05-02T10:53:35;20.93;;;14.40;;
32292;SDS011;43233;48.608;8.838;2023-05-02T10:58:39;15.23;;;12.70;;
32292;SDS011;43233;48.608;8.838;2023-05-02T11:03:58;15.40;;;12.00;;
32292;SDS011;43233;48.608;8.838;2023-05-02T11:06:25;20.30;;;13.00;;
32292;SDS011;43233;48.608;8.838;2023-05-02T11:08:52;14.20;;;12.20;;
32292;SDS011;43233;48.608;8.838;2023-05-02T11:11:41;19.83;;;12.93;;
32292;SDS011;43233;48.608;8.838;2023-05-02T11:14:07;17.30;;;12.37;;
32292;SDS011;43233;48.608;8.838;2023-05-02T11:19:19;13.30;;;10.30;;
32292;SDS011;43233;48.608;8.838;2023-05-02T11:21:45;18.83;;;11.80;;
32292;SDS011;43233;48.608;8.838;2023-05-02T11:24:44;10.53;;;9.20;;
32292;SDS011;43233;48.608;8.838;2023-05-02T11:30:06;12.87;;;9.73;;
32292;SDS011;43233;48.608;8.838;2023-05-02T11:40:19;13.10;;;10.50;;
32292;SDS011;43233;48.608;8.838;2023-05-02T11:42:46;11.27;;;10.07;;
32292;SDS011;43233;48.608;8.838;2023-05-02T11:45:11;14.77;;;11.80;;
32292;SDS011;43233;48.608;8.838;2023-05-02T11:47:37;11.53;;;9.60;;
32292;SDS011;43233;48.608;8.838;2023-05-02T11:50:05;12.00;;;8.90;;
32292;SDS011;43233;48.608;8.838;2023-05-02T11:52:38;11.57;;;8.07;;
32292;SDS011;43233;48.608;8.838;2023-05-02T11:55:06;14.00;;;10.83;;
32292;SDS011;43233;48.608;8.838;2023-05-02T11:57:33;11.73;;;9.63;;
32292;SDS011;43233;48.608;8.838;2023-05-02T11:59:59;15.10;;;10.50;;
32292;SDS011;43233;48.608;8.838;2023-05-02T12:02:37;15.00;;;11.27;;
32292;SDS011;43233;48.608;8.838;2023-05-02T12:05:08;13.60;;;10.77;;
32292;SDS011;43233;48.608;8.838;2023-05-02T12:07:39;12.33;;;9.57;;
32292;SDS011;43233;48.608;8.838;2023-05-02T12:10:09;16.20;;;12.20;;
32292;SDS011;43233;48.608;8.838;2023-05-02T12:12:37;15.10;;;11.63;;
32292;SDS011;43233;48.608;8.838;2023-05-02T12:15:05;15.70;;;12.33;;
32292;SDS011;43233;48.608;8.838;2023-05-02T12:17:32;13.97;;;11.70;;
32292;SDS011;43233;48.608;8.838;2023-05-02T12:20:04;13.70;;;11.17;;
32292;SDS011;43233;48.608;8.838;2023-05-02T12:22:32;21.20;;;11.00;;
32292;SDS011;43233;48.608;8.838;2023-05-02T12:24:58;14.63;;;12.13;;
32292;SDS011;43233;48.608;8.838;2023-05-02T12:27:24;14.63;;;11.47;;
32292;SDS011;43233;48.608;8.838;2023-05-02T12:29:50;15.00;;;11.17;;
32292;SDS011;43233;48.608;8.838;2023-05-02T12:32:26;12.90;;;9.50;;
32292;SDS011;43233;48.608;8.838;2023-05-02T12:34:54;16.63;;;10.90;;
32292;SDS011;43233;48.608;8.838;2023-05-02T12:37:26;12.33;;;11.10;;
32292;SDS011;43233;48.608;8.838;2023-05-02T12:39:52;18.70;;;13.10;;
32292;SDS011;43233;48.608;8.838;2023-05-02T12:42:20;17.23;;;14.10;;
32292;SDS011;43233;48.608;8.838;2023-05-02T12:44:48;16.57;;;13.50;;
32292;SDS011;43233;48.608;8.838;2023-05-02T12:47:16;14.07;;;12.17;;
32292;SDS011;43233;48.608;8.838;2023-05-02T12:49:58;18.73;;;13.90;;
32292;SDS011;43233;48.608;8.838;2023-05-02T12:55:22;15.70;;;13.47;;
32292;SDS011;43233;48.608;8.838;2023-05-02T12:57:49;16.60;;;13.50;;
32292;SDS011;43233;48.608;8.838;2023-05-02T13:00:23;17.83;;;13.10;;
32292;SDS011;43233;48.608;8.838;2023-05-02T13:02:49;15.20;;;12.37;;
32292;SDS011;43233;48.608;8.838;2023-05-02T13:05:15;17.57;;;13.50;;
32292;SDS011;43233;48.608;8.838;2023-05-02T13:07:42;14.83;;;12.40;;
32292;SDS011;43233;48.608;8.838;2023-05-02T13:10:08;17.17;;;13.27;;
32292;SDS011;43233;48.608;8.838;2023-05-02T13:12:35;17.23;;;13.30;;
32292;SDS011;43233;48.608;8.838;2023-05-02T13:15:05;20.57;;;14.50;;
32292;SDS011;43233;48.608;8.838;2023-05-02T13:17:32;18.77;;;13.63;;
32292;SDS011;43233;48.608;8.838;2023-05-02T13:19:58;16.73;;;12.43;;
32292;SDS011;43233;48.608;8.838;2023-05-02T13:22:24;18.03;;;12.90;;
32292;SDS011;43233;48.608;8.838;2023-05-02T13:24:50;14.13;;;11.27;;
32292;SDS011;43233;48.608;8.838;2023-05-02T13:27:16;16.93;;;12.60;;
32292;SDS011;43233;48.608;8.838;2023-05-02T13:29:45;17.30;;;13.10;;
32292;SDS011;43233;48.608;8.838;2023-05-02T13:32:11;16.37;;;12.00;;
32292;SDS011;43233;48.608;8.838;2023-05-02T13:34:36;11.43;;;9.90;;
32292;SDS011;43233;48.608;8.838;2023-05-02T13:37:02;15.03;;;11.97;;
32292;SDS011;43233;48.608;8.838;2023-05-02T13:39:28;13.50;;;10.60;;
32292;SDS011;43233;48.608;8.838;2023-05-02T13:41:54;15.83;;;12.33;;
32292;SDS011;43233;48.608;8.838;2023-05-02T13:44:19;14.70;;;11.27;;
32292;SDS011;43233;48.608;8.838;2023-05-02T13:46:45;14.90;;;13.13;;
32292;SDS011;43233;48.608;8.838;2023-05-02T13:49:12;17.20;;;11.80;;
32292;SDS011;43233;48.608;8.838;2023-05-02T13:51:38;16.43;;;13.20;;
32292;SDS011;43233;48.608;8.838;2023-05-02T13:54:03;18.53;;;12.97;;
32292;SDS011;43233;48.608;8.838;2023-05-02T13:56:29;14.70;;;12.73;;
32292;SDS011;43233;48.608;8.838;2023-05-02T13:58:55;11.90;;;10.23;;
32292;SDS011;43233;48.608;8.838;2023-05-02T14:01:21;16.20;;;12.00;;
32292;SDS011;43233;48.608;8.838;2023-05-02T14:03:47;14.83;;;11.10;;
32292;SDS011;43233;48.608;8.838;2023-05-02T14:06:13;16.03;;;12.47;;
32292;SDS011;43233;48.608;8.838;2023-05-02T14:08:38;18.13;;;12.87;;
32292;SDS011;43233;48.608;8.838;2023-05-02T14:11:04;16.77;;;11.73;;
32292;SDS011;43233;48.608;8.838;2023-05-02T14:13:30;14.30;;;12.37;;
32292;SDS011;43233;48.608;8.838;2023-05-02T14:15:55;14.10;;;12.60;;
32292;SDS011;43233;48.608;8.838;2023-05-02T14:18:22;15.13;;;12.20;;
32292;SDS011;43233;48.608;8.838;2023-05-02T14:20:48;13.70;;;11.90;;
32292;SDS011;43233;48.608;8.838;2023-05-02T14:23:14;15.73;;;11.67;;
32292;SDS011;43233;48.608;8.838;2023-05-02T14:25:40;14.30;;;12.00;;
32292;SDS011;43233;48.608;8.838;2023-05-02T14:28:06;16.03;;;8.47;;
32292;SDS011;43233;48.608;8.838;2023-05-02T14:30:32;10.10;;;7.20;;
32292;SDS011;43233;48.608;8.838;2023-05-02T14:32:57;9.87;;;8.87;;
32292;SDS011;43233;48.608;8.838;2023-05-02T14:35:23;11.73;;;9.13;;
32292;SDS011;43233;48.608;8.838;2023-05-02T14:37:49;10.13;;;8.63;;
32292;SDS011;43233;48.608;8.838;2023-05-02T14:40:15;8.23;;;7.30;;
32292;SDS011;43233;48.608;8.838;2023-05-02T14:42:41;10.10;;;8.40;;
32292;SDS011;43233;48.608;8.838;2023-05-02T14:45:07;11.97;;;8.57;;
32292;SDS011;43233;48.608;8.838;2023-05-02T14:47:34;8.97;;;7.43;;
32292;SDS011;43233;48.608;8.838;2023-05-02T14:50:02;9.60;;;8.10;;
32292;SDS011;43233;48.608;8.838;2023-05-02T14:52:29;11.20;;;8.20;;
32292;SDS011;43233;48.608;8.838;2023-05-02T14:54:57;8.50;;;7.00;;
32292;SDS011;43233;48.608;8.838;2023-05-02T14:57:23;8.57;;;7.67;;
32292;SDS011;43233;48.608;8.838;2023-05-02T14:59:49;10.67;;;8.57;;
32292;SDS011;43233;48.608;8.838;2023-05-02T15:02:15;10.30;;;8.40;;
32292;SDS011;43233;48.608;8.838;2023-05-02T15:04:40;11.00;;;8.80;;
32292;SDS011;43233;48.608;8.838;2023-05-02T15:07:06;12.10;;;8.23;;
32292;SDS011;43233;48.608;8.838;2023-05-02T15:09:32;11.00;;;8.93;;
32292;SDS011;43233;48.608;8.838;2023-05-02T15:11:57;11.07;;;8.60;;
32292;SDS011;43233;48.608;8.838;2023-05-02T15:14:23;11.37;;;8.30;;
32292;SDS011;43233;48.608;8.838;2023-05-02T15:16:49;12.20;;;7.93;;
32292;SDS011;43233;48.608;8.838;2023-05-02T15:19:15;10.00;;;8.00;;
32292;SDS011;43233;48.608;8.838;2023-05-02T15:21:41;9.00;;;6.77;;
32292;SDS011;43233;48.608;8.838;2023-05-02T15:24:06;9.07;;;6.50;;
32292;SDS011;43233;48.608;8.838;2023-05-02T15:26:32;9.73;;;6.63;;
32292;SDS011;43233;48.608;8.838;2023-05-02T15:28:58;8.23;;;7.07;;